Time;durP1;ratioP1;P1;durP2;ratioP2;P2;SDS_P1;SDS_P2;PMS_P1;PMS_P2;Temp;Humidity;BMP_temperature;BMP_pressure;BME280_temperature;BME280_humidity;BME280_pressure;Samples;Min_cycle;Max_cycle;Signal;HPM_P1;HPM_P2
2023/10/18 00:01:55;;;;;;;;;;;16.50;53.90;;;;;;217856;1292;22683;-62
2023/10/18 00:06:58;;;;;;;;;;;16.50;53.80;;;;;;218154;1295;25233;-63
2023/10/18 00:12:01;;;;;;;;;;;16.40;53.90;;;;;;218425;1295;22687;-63
2023/10/18 00:17:05;;;;;;;;;;;16.40;53.80;;;;;;217882;1292;22611;-63
2023/10/18 00:22:09;;;;;;;;;;;16.40;53.90;;;;;;217702;1292;22537;-63
2023/10/18 00:27:12;;;;;;;;;;;16.40;53.80;;;;;;218682;1290;26538;-62
2023/10/18 00:32:16;;;;;;;;;;;16.40;53.80;;;;;;218046;1286;22531;-62
2023/10/18 00:37:20;;;;;;;;;;;16.40;54.10;;;;;;217663;1295;22568;-61
2023/10/18 00:42:27;;;;;;;;;;;16.40;53.80;;;;;;218089;1292;23884;-61
2023/10/18 00:47:30;;;;;;;;;;;16.40;53.70;;;;;;218152;1295;22553;-61
2023/10/18 00:52:35;;;;;;;;;;;16.40;53.70;;;;;;218367;1289;22534;-62
2023/10/18 00:57:38;;;;;;;;;;;16.30;53.70;;;;;;217733;1295;24093;-61
2023/10/18 01:02:53;;;;;;;;;;;16.40;53.70;;;;;;217925;1295;22542;-63
2023/10/18 01:07:59;;;;;;;;;;;16.30;53.60;;;;;;218219;1295;22668;-61
2023/10/18 01:13:01;;;;;;;;;;;16.30;53.70;;;;;;218008;1279;22683;-61
2023/10/18 01:18:05;;;;;;;;;;;16.30;53.60;;;;;;218326;1287;24266;-61
2023/10/18 01:23:07;;;;;;;;;;;16.30;53.60;;;;;;218118;1295;25299;-61
2023/10/18 01:28:10;;;;;;;;;;;16.30;53.70;;;;;;218194;1292;22563;-61
2023/10/18 01:33:14;;;;;;;;;;;16.30;53.60;;;;;;218261;1295;24838;-61
2023/10/18 01:38:19;;;;;;;;;;;16.20;53.50;;;;;;218038;1295;24168;-60
2023/10/18 01:43:27;;;;;;;;;;;16.30;53.50;;;;;;218101;1292;22688;-61
2023/10/18 01:48:30;;;;;;;;;;;16.30;53.40;;;;;;217957;1292;23757;-61
2023/10/18 01:53:33;;;;;;;;;;;16.20;53.50;;;;;;218016;1292;24412;-61
2023/10/18 01:58:36;;;;;;;;;;;16.20;53.50;;;;;;217661;1289;22608;-61
2023/10/18 02:03:44;;;;;;;;;;;16.20;53.50;;;;;;218149;1295;23915;-61
2023/10/18 02:08:48;;;;;;;;;;;16.20;53.50;;;;;;217791;1295;22531;-61
2023/10/18 02:13:51;;;;;;;;;;;16.20;53.50;;;;;;218358;1295;22655;-60
2023/10/18 02:18:54;;;;;;;;;;;16.20;53.50;;;;;;217753;1295;22681;-61
2023/10/18 02:23:57;;;;;;;;;;;16.20;53.40;;;;;;218371;1295;22495;-62
2023/10/18 02:29:11;;;;;;;;;;;16.20;53.80;;;;;;217892;1295;22779;-62
2023/10/18 02:34:14;;;;;;;;;;;16.10;53.40;;;;;;218263;1295;22524;-61
2023/10/18 02:39:34;;;;;;;;;;;16.20;53.30;;;;;;217815;1292;22534;-60
2023/10/18 02:44:42;;;;;;;;;;;16.20;53.60;;;;;;218008;1295;22582;-61
2023/10/18 02:49:51;;;;;;;;;;;16.10;53.20;;;;;;218076;1295;22571;-62
2023/10/18 02:54:56;;;;;;;;;;;16.10;53.60;;;;;;218232;1282;22514;-62
2023/10/18 03:00:10;;;;;;;;;;;16.10;53.20;;;;;;218336;1295;23424;-63
2023/10/18 03:05:12;;;;;;;;;;;16.10;53.30;;;;;;217558;1290;240738;-64
2023/10/18 03:10:32;;;;;;;;;;;16.10;53.20;;;;;;218425;1292;23911;-62
2023/10/18 03:15:46;;;;;;;;;;;16.10;53.10;;;;;;217928;1295;23956;-62
2023/10/18 03:20:55;;;;;;;;;;;16.10;53.10;;;;;;218157;1289;25220;-62
2023/10/18 03:26:04;;;;;;;;;;;16.10;53.10;;;;;;217941;1295;24195;-63
2023/10/18 03:31:20;;;;;;;;;;;16.00;53.10;;;;;;218462;1295;22548;-62
2023/10/18 03:36:25;;;;;;;;;;;16.00;53.10;;;;;;218657;1295;22537;-62
2023/10/18 03:41:34;;;;;;;;;;;16.00;53.10;;;;;;217787;1295;23960;-61
2023/10/18 03:46:49;;;;;;;;;;;16.00;53.10;;;;;;218082;1295;25287;-62
2023/10/18 03:51:56;;;;;;;;;;;15.90;53.20;;;;;;218406;1292;22553;-62
2023/10/18 03:57:06;;;;;;;;;;;16.00;53.10;;;;;;218285;1295;22532;-63
2023/10/18 04:02:15;;;;;;;;;;;16.00;53.10;;;;;;217749;1293;22537;-60
2023/10/18 04:07:24;;;;;;;;;;;16.00;53.00;;;;;;218262;1292;24410;-61
2023/10/18 04:12:29;;;;;;;;;;;15.90;53.00;;;;;;218070;1294;22534;-60
2023/10/18 04:17:36;;;;;;;;;;;15.90;53.00;;;;;;218514;1295;22527;-61
2023/10/18 04:22:38;;;;;;;;;;;15.90;53.10;;;;;;217927;1295;23954;-60
2023/10/18 04:27:42;;;;;;;;;;;15.90;53.00;;;;;;217988;1292;22531;-60
2023/10/18 04:32:45;;;;;;;;;;;15.90;53.00;;;;;;218140;1295;22544;-61
2023/10/18 04:37:48;;;;;;;;;;;15.90;53.40;;;;;;217886;1292;22666;-62
2023/10/18 04:42:51;;;;;;;;;;;15.90;53.00;;;;;;218342;1292;25328;-62
2023/10/18 04:48:14;;;;;;;;;;;15.80;53.10;;;;;;217992;1295;26019;-61
2023/10/18 04:53:23;;;;;;;;;;;15.80;53.00;;;;;;217902;1279;25648;-61
2023/10/18 04:58:29;;;;;;;;;;;15.80;53.00;;;;;;217760;1295;22773;-62
2023/10/18 05:03:32;;;;;;;;;;;15.80;53.00;;;;;;218077;1292;22656;-62
2023/10/18 05:08:36;;;;;;;;;;;15.80;53.10;;;;;;218423;1295;24404;-61
2023/10/18 05:13:42;;;;;;;;;;;15.80;53.00;;;;;;217814;1295;24256;-61
2023/10/18 05:18:44;;;;;;;;;;;15.80;53.00;;;;;;218136;1292;22641;-61
2023/10/18 05:23:49;;;;;;;;;;;15.80;53.00;;;;;;218237;1295;22587;-62
2023/10/18 05:28:57;;;;;;;;;;;15.80;53.10;;;;;;218549;1293;22565;-61
2023/10/18 05:34:04;;;;;;;;;;;15.70;53.00;;;;;;217949;1282;23942;-61
2023/10/18 05:39:27;;;;;;;;;;;15.80;53.00;;;;;;218292;1295;23960;-61
2023/10/18 05:44:31;;;;;;;;;;;15.80;52.90;;;;;;218128;1279;22708;-60
2023/10/18 05:49:40;;;;;;;;;;;15.70;53.00;;;;;;218164;1292;24098;-61
2023/10/18 05:54:43;;;;;;;;;;;15.70;53.00;;;;;;218244;1295;22829;-60
2023/10/18 05:59:48;;;;;;;;;;;15.80;52.90;;;;;;218333;1295;25517;-61
2023/10/18 06:04:51;;;;;;;;;;;15.70;53.00;;;;;;218284;1295;23507;-61
2023/10/18 06:09:58;;;;;;;;;;;15.70;52.90;;;;;;218333;1289;22663;-61
2023/10/18 06:15:10;;;;;;;;;;;15.70;52.90;;;;;;218186;1289;22677;-60
2023/10/18 06:20:30;;;;;;;;;;;15.70;53.30;;;;;;218184;1292;23954;-61
2023/10/18 06:31:08;;;;;;;;;;;15.70;52.90;;;;;;218142;1292;22539;-62
2023/10/18 06:36:15;;;;;;;;;;;15.70;52.90;;;;;;218417;1282;22519;-62
2023/10/18 06:41:18;;;;;;;;;;;15.70;52.90;;;;;;217996;1295;22542;-63
2023/10/18 06:46:30;;;;;;;;;;;15.80;52.90;;;;;;218130;1289;22530;-61
2023/10/18 06:51:43;;;;;;;;;;;15.70;53.20;;;;;;218492;1295;23905;-62
2023/10/18 06:56:46;;;;;;;;;;;15.70;52.90;;;;;;218311;1294;22549;-63
2023/10/18 07:01:57;;;;;;;;;;;15.70;52.90;;;;;;218101;1295;22668;-62
2023/10/18 07:07:01;;;;;;;;;;;15.70;52.90;;;;;;218367;1294;22651;-62
2023/10/18 07:12:04;;;;;;;;;;;15.70;52.90;;;;;;218461;1289;22529;-62
2023/10/18 07:17:09;;;;;;;;;;;15.70;53.10;;;;;;218492;1279;22540;-61
2023/10/18 07:22:17;;;;;;;;;;;15.70;53.20;;;;;;218396;1292;25378;-61
2023/10/18 07:27:23;;;;;;;;;;;15.70;52.90;;;;;;218145;1289;22788;-61
2023/10/18 07:32:28;;;;;;;;;;;15.70;52.80;;;;;;218026;1292;23627;-62
2023/10/18 07:37:50;;;;;;;;;;;15.70;52.70;;;;;;218361;1279;24246;-62
2023/10/18 07:42:53;;;;;;;;;;;15.80;52.80;;;;;;218321;1286;22668;-59
2023/10/18 07:47:57;;;;;;;;;;;15.80;52.70;;;;;;218447;1295;22530;-60
2023/10/18 07:53:00;;;;;;;;;;;15.80;53.10;;;;;;218133;1282;22643;-61
2023/10/18 07:58:17;;;;;;;;;;;15.80;52.70;;;;;;218098;1295;22531;-61
2023/10/18 08:03:21;;;;;;;;;;;15.80;52.80;;;;;;218049;1289;23937;-61
2023/10/18 08:08:27;;;;;;;;;;;15.90;52.50;;;;;;218071;1295;25098;-61
2023/10/18 08:13:29;;;;;;;;;;;15.90;52.40;;;;;;218251;1292;22634;-61
2023/10/18 08:18:44;;;;;;;;;;;15.90;52.50;;;;;;218081;1286;22527;-61
2023/10/18 08:23:47;;;;;;;;;;;15.80;53.30;;;;;;218501;1295;22539;-61
2023/10/18 08:28:53;;;;;;;;;;;16.00;52.40;;;;;;218266;1294;23901;-60
2023/10/18 08:33:57;;;;;;;;;;;16.10;52.10;;;;;;218209;1292;22711;-60
2023/10/18 08:39:01;;;;;;;;;;;16.30;51.70;;;;;;218104;1289;22523;-61
2023/10/18 08:44:18;;;;;;;;;;;16.30;51.60;;;;;;218250;1292;23898;-61
2023/10/18 08:49:22;;;;;;;;;;;16.40;51.80;;;;;;218170;1292;22616;-62
2023/10/18 08:54:30;;;;;;;;;;;16.40;51.70;;;;;;218155;1294;22649;-62
2023/10/18 08:59:42;;;;;;;;;;;16.50;51.70;;;;;;218544;1292;22646;-64
2023/10/18 09:04:46;;;;;;;;;;;16.50;51.70;;;;;;218288;1289;22600;-62
2023/10/18 09:09:58;;;;;;;;;;;16.60;52.10;;;;;;218167;1289;25223;-62
2023/10/18 09:15:26;;;;;;;;;;;16.70;51.80;;;;;;218255;1295;22530;-61
2023/10/18 09:20:27;;;;;;;;;;;16.80;51.60;;;;;;218035;1287;22546;-62
2023/10/18 09:25:47;;;;;;;;;;;16.80;51.60;;;;;;218317;1291;22615;-64
2023/10/18 09:30:54;;;;;;;;;;;16.80;51.70;;;;;;218326;1295;27229;-61
2023/10/18 09:36:01;;;;;;;;;;;16.90;51.50;;;;;;218113;1292;24931;-61
2023/10/18 09:41:04;;;;;;;;;;;16.90;51.60;;;;;;218249;1295;22533;-62
2023/10/18 09:46:08;;;;;;;;;;;16.90;51.60;;;;;;218364;1292;25366;-61
2023/10/18 09:51:16;;;;;;;;;;;17.00;51.70;;;;;;218143;1289;22554;-62
2023/10/18 09:56:26;;;;;;;;;;;17.00;51.60;;;;;;218241;1295;22529;-62
2023/10/18 10:01:30;;;;;;;;;;;17.00;51.80;;;;;;218057;1291;22646;-62
2023/10/18 10:06:33;;;;;;;;;;;17.00;51.80;;;;;;218056;1295;22599;-62
2023/10/18 10:11:43;;;;;;;;;;;17.10;51.90;;;;;;218590;1280;22934;-62
2023/10/18 10:16:46;;;;;;;;;;;17.10;52.20;;;;;;218330;1289;22527;-62
2023/10/18 10:21:49;;;;;;;;;;;17.20;51.80;;;;;;218254;1292;22777;-62
2023/10/18 10:26:51;;;;;;;;;;;17.20;51.80;;;;;;218137;1291;22556;-62
2023/10/18 10:32:10;;;;;;;;;;;17.30;51.80;;;;;;218207;1295;22796;-63
2023/10/18 10:37:18;;;;;;;;;;;17.30;51.80;;;;;;218171;1295;22730;-62
2023/10/18 10:42:41;;;;;;;;;;;17.30;51.80;;;;;;218348;1282;25689;-62
2023/10/18 10:47:50;;;;;;;;;;;17.40;51.80;;;;;;218294;1295;25463;-63
2023/10/18 10:52:53;;;;;;;;;;;17.40;51.80;;;;;;218101;1276;25596;-63
2023/10/18 10:57:56;;;;;;;;;;;17.50;51.70;;;;;;218158;1295;25331;-62
2023/10/18 11:03:06;;;;;;;;;;;17.50;51.60;;;;;;218241;1292;22892;-62
2023/10/18 11:08:12;;;;;;;;;;;17.50;51.60;;;;;;218409;1295;22605;-62
2023/10/18 11:13:15;;;;;;;;;;;17.60;51.60;;;;;;218270;1295;22527;-62
2023/10/18 11:18:21;;;;;;;;;;;17.60;51.50;;;;;;218043;1289;24225;-62
2023/10/18 11:23:27;;;;;;;;;;;17.60;51.60;;;;;;217985;1289;22691;-62
2023/10/18 11:28:30;;;;;;;;;;;17.60;51.60;;;;;;218097;1292;22529;-63
2023/10/18 11:33:36;;;;;;;;;;;17.70;51.30;;;;;;218166;1295;22539;-62
2023/10/18 11:38:39;;;;;;;;;;;17.80;51.90;;;;;;218153;1292;22679;-62
2023/10/18 11:43:50;;;;;;;;;;;17.80;51.60;;;;;;218451;1295;22696;-63
2023/10/18 11:48:53;;;;;;;;;;;17.70;51.50;;;;;;218288;1292;22545;-61
2023/10/18 11:53:56;;;;;;;;;;;17.80;51.50;;;;;;218157;1295;22773;-62
2023/10/18 11:59:00;;;;;;;;;;;17.80;51.50;;;;;;218385;1276;24253;-63
2023/10/18 12:04:06;;;;;;;;;;;17.90;51.60;;;;;;218512;1289;22533;-64
2023/10/18 12:14:18;;;;;;;;;;;18.00;51.00;;;;;;218447;1288;24820;-62
2023/10/18 12:19:20;;;;;;;;;;;17.90;51.60;;;;;;218195;1295;22546;-62
2023/10/18 12:24:24;;;;;;;;;;;17.90;51.50;;;;;;217912;1295;23319;-63
2023/10/18 12:29:29;;;;;;;;;;;18.00;51.60;;;;;;217885;1289;25303;-62
2023/10/18 12:34:35;;;;;;;;;;;18.00;51.60;;;;;;218388;1295;22510;-61
2023/10/18 12:39:37;;;;;;;;;;;18.10;51.60;;;;;;218370;1295;22827;-62
2023/10/18 12:44:40;;;;;;;;;;;18.00;51.60;;;;;;218029;1295;22526;-63
2023/10/18 12:49:50;;;;;;;;;;;18.00;51.50;;;;;;218396;1292;22794;-62
2023/10/18 12:54:53;;;;;;;;;;;18.10;51.50;;;;;;218050;1292;22543;-62
2023/10/18 13:05:01;;;;;;;;;;;18.10;51.80;;;;;;218377;1295;24218;-63
2023/10/18 13:10:11;;;;;;;;;;;18.10;51.50;;;;;;218354;1295;22527;-63
2023/10/18 13:15:15;;;;;;;;;;;18.10;51.50;;;;;;217956;1292;22662;-62
2023/10/18 13:20:34;;;;;;;;;;;18.20;51.50;;;;;;218274;1289;22544;-63
2023/10/18 13:25:49;;;;;;;;;;;18.10;51.80;;;;;;218124;1288;24227;-63
2023/10/18 13:30:52;;;;;;;;;;;18.20;51.50;;;;;;218089;1295;24354;-61
2023/10/18 13:35:56;;;;;;;;;;;18.20;51.50;;;;;;218584;1279;23232;-61
2023/10/18 13:41:01;;;;;;;;;;;18.20;51.50;;;;;;217960;1292;22523;-62
2023/10/18 13:46:08;;;;;;;;;;;18.20;51.50;;;;;;217897;1278;23946;-63
2023/10/18 13:51:13;;;;;;;;;;;18.10;51.60;;;;;;218521;1295;23954;-63
2023/10/18 13:56:16;;;;;;;;;;;18.10;51.60;;;;;;218064;1285;22472;-62
2023/10/18 14:01:18;;;;;;;;;;;18.10;51.80;;;;;;218205;1295;22538;-63
2023/10/18 14:06:26;;;;;;;;;;;18.00;52.00;;;;;;218295;1292;25461;-63
2023/10/18 14:11:42;;;;;;;;;;;18.00;52.00;;;;;;217853;1295;22609;-63
2023/10/18 14:16:45;;;;;;;;;;;17.90;52.30;;;;;;218296;1289;24096;-63
2023/10/18 14:21:48;;;;;;;;;;;17.90;52.10;;;;;;218464;1282;22546;-63
2023/10/18 14:26:51;;;;;;;;;;;17.90;52.10;;;;;;217855;1292;22531;-63
2023/10/18 14:31:54;;;;;;;;;;;17.90;52.10;;;;;;218062;1292;22562;-62
2023/10/18 14:36:56;;;;;;;;;;;17.90;52.10;;;;;;218194;1295;22475;-63
2023/10/18 14:41:59;;;;;;;;;;;17.90;52.10;;;;;;218392;1295;22527;-62
2023/10/18 14:47:02;;;;;;;;;;;17.90;52.00;;;;;;218191;1292;23900;-63
2023/10/18 14:52:11;;;;;;;;;;;17.80;52.10;;;;;;218231;1295;22532;-63
2023/10/18 14:57:19;;;;;;;;;;;17.80;52.10;;;;;;218323;1292;22607;-62
2023/10/18 15:02:22;;;;;;;;;;;17.80;52.60;;;;;;218161;1295;24274;-62
2023/10/18 15:07:25;;;;;;;;;;;17.70;52.20;;;;;;218110;1292;205221;-62
2023/10/18 15:12:27;;;;;;;;;;;17.70;52.30;;;;;;218457;1294;22543;-62
2023/10/18 15:17:30;;;;;;;;;;;17.70;52.40;;;;;;218176;1292;22623;-62
2023/10/18 15:22:35;;;;;;;;;;;17.60;52.70;;;;;;218216;1289;23895;-63
2023/10/18 15:27:38;;;;;;;;;;;17.60;52.40;;;;;;218502;1292;22531;-63
2023/10/18 15:32:42;;;;;;;;;;;17.60;52.40;;;;;;218386;1292;23784;-62
2023/10/18 15:37:45;;;;;;;;;;;17.50;52.40;;;;;;218016;1292;22694;-65
2023/10/18 15:42:47;;;;;;;;;;;17.50;52.30;;;;;;218104;1295;22714;-62
2023/10/18 15:47:52;;;;;;;;;;;17.50;52.40;;;;;;218266;1294;22542;-62
2023/10/18 15:52:55;;;;;;;;;;;17.50;52.40;;;;;;218141;1295;22531;-62
2023/10/18 15:57:57;;;;;;;;;;;17.50;52.00;;;;;;217879;1295;24045;-61
2023/10/18 16:03:00;;;;;;;;;;;17.40;52.50;;;;;;217944;1295;22642;-62
2023/10/18 16:08:04;;;;;;;;;;;17.40;52.60;;;;;;218116;1281;22594;-61
2023/10/18 16:13:09;;;;;;;;;;;17.40;52.60;;;;;;218050;1295;24195;-62
2023/10/18 16:18:12;;;;;;;;;;;17.40;52.60;;;;;;218100;1280;22534;-61
2023/10/18 16:23:15;;;;;;;;;;;17.40;52.70;;;;;;218165;1292;22620;-63
2023/10/18 16:28:18;;;;;;;;;;;17.30;52.60;;;;;;218388;1285;22655;-62
2023/10/18 16:33:23;;;;;;;;;;;17.40;52.70;;;;;;217979;1292;23377;-62
2023/10/18 16:38:26;;;;;;;;;;;17.30;52.70;;;;;;218243;1295;25407;-61
2023/10/18 16:43:28;;;;;;;;;;;17.30;52.80;;;;;;218365;1292;22543;-62
2023/10/18 16:48:32;;;;;;;;;;;17.30;52.80;;;;;;218168;1295;23911;-61
2023/10/18 16:53:37;;;;;;;;;;;17.30;53.00;;;;;;218109;1289;24212;-62
2023/10/18 16:58:40;;;;;;;;;;;17.20;52.90;;;;;;218445;1295;22523;-63
2023/10/18 17:03:44;;;;;;;;;;;17.20;52.90;;;;;;218287;1289;22531;-63
2023/10/18 17:08:48;;;;;;;;;;;17.20;53.20;;;;;;218219;1295;24273;-63
2023/10/18 17:13:52;;;;;;;;;;;17.20;52.90;;;;;;218184;1295;22549;-63
2023/10/18 17:18:55;;;;;;;;;;;17.20;52.80;;;;;;218101;1289;24373;-63
2023/10/18 17:23:58;;;;;;;;;;;17.20;52.80;;;;;;218166;1295;22616;-63
2023/10/18 17:29:02;;;;;;;;;;;17.20;52.90;;;;;;218421;1291;22594;-63
2023/10/18 17:34:05;;;;;;;;;;;17.20;52.80;;;;;;218357;1289;22537;-63
2023/10/18 17:39:11;;;;;;;;;;;17.20;53.10;;;;;;218322;1292;22523;-63
2023/10/18 17:44:16;;;;;;;;;;;17.20;52.80;;;;;;218365;1291;24436;-62
2023/10/18 17:49:22;;;;;;;;;;;17.10;52.80;;;;;;218105;1295;23293;-64
2023/10/18 17:54:25;;;;;;;;;;;17.20;52.80;;;;;;217931;1295;22705;-63
2023/10/18 17:59:30;;;;;;;;;;;17.10;52.70;;;;;;217869;1289;22590;-63
2023/10/18 18:04:34;;;;;;;;;;;17.10;52.80;;;;;;218237;1295;22527;-61
2023/10/18 18:09:40;;;;;;;;;;;17.10;52.80;;;;;;218295;1295;22542;-61
2023/10/18 18:14:44;;;;;;;;;;;17.10;53.10;;;;;;218086;1289;22584;-62
2023/10/18 18:19:47;;;;;;;;;;;17.10;52.80;;;;;;218286;1295;22575;-61
2023/10/18 18:24:50;;;;;;;;;;;17.10;53.20;;;;;;218360;1289;22631;-61
2023/10/18 18:29:54;;;;;;;;;;;17.10;52.80;;;;;;218110;1295;25388;-62
2023/10/18 18:34:58;;;;;;;;;;;17.00;52.70;;;;;;218197;1292;25459;-62
2023/10/18 18:40:03;;;;;;;;;;;17.10;52.70;;;;;;217887;1292;22578;-59
2023/10/18 18:45:10;;;;;;;;;;;17.00;53.00;;;;;;218052;1283;25340;-62
2023/10/18 18:50:14;;;;;;;;;;;17.00;52.70;;;;;;218084;1295;25235;-62
2023/10/18 18:55:19;;;;;;;;;;;17.00;52.80;;;;;;218102;1295;22600;-61
2023/10/18 19:00:23;;;;;;;;;;;17.00;53.10;;;;;;218486;1292;22637;-60
2023/10/18 19:05:28;;;;;;;;;;;17.00;52.70;;;;;;217909;1295;23677;-61
2023/10/18 19:10:33;;;;;;;;;;;17.00;52.80;;;;;;218135;1287;24209;-62
2023/10/18 19:15:38;;;;;;;;;;;17.00;52.70;;;;;;218527;1295;22623;-62
2023/10/18 19:20:43;;;;;;;;;;;17.00;52.70;;;;;;218247;1295;22556;-62
2023/10/18 19:25:46;;;;;;;;;;;17.00;52.70;;;;;;217968;1285;22530;-60
2023/10/18 19:30:54;;;;;;;;;;;16.90;52.60;;;;;;218361;1287;25324;-60
2023/10/18 19:35:58;;;;;;;;;;;17.00;52.70;;;;;;217963;1295;24530;-61
2023/10/18 19:41:03;;;;;;;;;;;17.00;52.70;;;;;;217921;1291;22632;-61
2023/10/18 19:46:09;;;;;;;;;;;16.90;52.70;;;;;;218472;1295;22502;-61
2023/10/18 19:51:14;;;;;;;;;;;16.90;52.70;;;;;;217951;1295;22527;-61
2023/10/18 19:56:18;;;;;;;;;;;16.90;52.90;;;;;;218522;1292;22524;-61
2023/10/18 20:01:21;;;;;;;;;;;16.90;52.80;;;;;;218042;1289;22533;-61
2023/10/18 20:06:25;;;;;;;;;;;16.90;52.80;;;;;;218390;1283;22531;-60
2023/10/18 20:11:29;;;;;;;;;;;16.90;52.80;;;;;;218465;1295;22572;-63
2023/10/18 20:16:33;;;;;;;;;;;16.90;53.10;;;;;;217846;1292;22767;-61
2023/10/18 20:21:38;;;;;;;;;;;16.80;52.70;;;;;;218200;1295;22697;-61
2023/10/18 20:26:42;;;;;;;;;;;16.90;52.70;;;;;;217951;1295;23043;-60
2023/10/18 20:31:45;;;;;;;;;;;16.80;52.70;;;;;;218103;1295;22639;-60
2023/10/18 20:36:48;;;;;;;;;;;16.90;52.70;;;;;;217941;1292;22559;-62
2023/10/18 20:41:50;;;;;;;;;;;16.80;53.10;;;;;;218232;1287;24222;-61
2023/10/18 20:46:55;;;;;;;;;;;16.80;52.80;;;;;;218516;1285;22770;-61
2023/10/18 20:51:59;;;;;;;;;;;16.70;52.80;;;;;;218211;1295;22614;-61
2023/10/18 20:57:06;;;;;;;;;;;16.70;52.90;;;;;;218220;1292;22546;-61
2023/10/18 21:02:22;;;;;;;;;;;16.70;53.20;;;;;;217840;1295;25092;-61
2023/10/18 21:07:25;;;;;;;;;;;16.70;52.90;;;;;;218251;1289;25843;-62
2023/10/18 21:12:30;;;;;;;;;;;16.70;52.90;;;;;;218167;1287;24404;-61
2023/10/18 21:17:33;;;;;;;;;;;16.70;52.90;;;;;;217765;1289;24533;-60
2023/10/18 21:22:37;;;;;;;;;;;16.70;52.90;;;;;;218231;1280;22621;-62
2023/10/18 21:27:41;;;;;;;;;;;16.70;53.00;;;;;;217941;1293;22786;-61
2023/10/18 21:32:44;;;;;;;;;;;16.70;52.80;;;;;;218158;1289;24330;-62
2023/10/18 21:37:48;;;;;;;;;;;16.70;52.80;;;;;;217950;1292;24462;-62
2023/10/18 21:42:50;;;;;;;;;;;16.70;52.80;;;;;;218317;1289;22534;-62
2023/10/18 21:47:53;;;;;;;;;;;16.70;53.20;;;;;;218210;1295;24259;-62
2023/10/18 21:52:56;;;;;;;;;;;16.60;52.80;;;;;;218291;1295;22520;-62
2023/10/18 21:57:58;;;;;;;;;;;16.60;52.80;;;;;;217864;1292;22629;-63
2023/10/18 22:03:01;;;;;;;;;;;16.60;52.90;;;;;;218403;1294;24224;-61
2023/10/18 22:08:08;;;;;;;;;;;16.60;52.90;;;;;;218104;1295;23261;-62
2023/10/18 22:13:12;;;;;;;;;;;16.60;52.80;;;;;;218092;1295;25373;-62
2023/10/18 22:18:15;;;;;;;;;;;16.50;52.80;;;;;;217992;1292;22534;-65
2023/10/18 22:23:20;;;;;;;;;;;16.60;53.30;;;;;;218388;1292;22609;-63
2023/10/18 22:28:22;;;;;;;;;;;16.50;52.80;;;;;;218232;1295;24052;-61
2023/10/18 22:33:30;;;;;;;;;;;16.50;53.00;;;;;;217772;1295;25328;-63
2023/10/18 22:38:32;;;;;;;;;;;16.50;52.90;;;;;;218220;1294;25721;-62
2023/10/18 22:43:36;;;;;;;;;;;16.50;52.80;;;;;;218043;1295;22540;-63
2023/10/18 22:48:39;;;;;;;;;;;16.50;52.80;;;;;;218178;1292;22634;-62
2023/10/18 22:58:50;;;;;;;;;;;16.50;52.80;;;;;;217990;1293;22535;-62
2023/10/18 23:03:54;;;;;;;;;;;16.50;53.20;;;;;;218094;1295;22527;-62
2023/10/18 23:09:06;;;;;;;;;;;16.50;52.80;;;;;;218019;1295;25605;-62
2023/10/18 23:14:23;;;;;;;;;;;16.50;52.80;;;;;;218250;1295;22549;-62
2023/10/18 23:29:45;;;;;;;;;;;16.40;53.20;;;;;;218216;1295;24343;-61
2023/10/18 23:34:54;;;;;;;;;;;16.40;52.90;;;;;;217769;1295;23089;-59
2023/10/18 23:39:57;;;;;;;;;;;16.40;52.60;;;;;;218383;1295;24268;-62
2023/10/18 23:45:12;;;;;;;;;;;16.40;52.90;;;;;;217886;1295;22764;-63
2023/10/18 23:50:29;;;;;;;;;;;16.40;52.90;;;;;;218294;1295;22608;-62
2023/10/18 23:55:47;;;;;;;;;;;16.40;52.90;;;;;;217830;1295;24040;-62
